Prague Express — DGZR2 — position and weather

sailwx.info

Track history (hours):
 
Tides and Currents Weather Stations Pressure Air Temp Water Temp Dewpoint Dewpoint Depression Visibility Wind Speed Wind Dir Waves Ship Positions

Prague Express

Last reported at 2018-Feb-16 15:30 UTC. Time now 2018-Feb-18 06:58 UTC.
Position N 32°37' W 079°32'.

Length 335 m; draft 11.9 m.

Type: Cargo ship. MMSI: 218361000.

Date/timePositionNaut miles runAvg speedWind from/ knotsBaromVisibWave heightAir tempDewpointWater temp
2018-Feb-16 15:30N 32°37' W 079°32'1811.3
2018-Feb-16 13:55N 32°19' W 079°34'915.5
2018-Feb-16 13:21N 32°11' W 079°36'716.9
2018-Feb-16 12:57N 32°09' W 079°44'816.8
2018-Feb-16 12:30N 32°03' W 079°49'917.0
2018-Feb-16 12:00N 31°55' W 079°54'816.8
2018-Feb-16 11:30N 31°48' W 079°59'816.6
2018-Feb-16 10:59N 31°41' W 080°04'816.6
2018-Feb-16 10:30N 31°34' W 080°08'816.5
2018-Feb-16 10:00N 31°27' W 080°13'816.4
2018-Feb-16 09:30N 31°19' W 080°18'1017.6
2018-Feb-16 08:55N 31°10' W 080°24'  
2018-Feb-14 03:06N 31°48' W 080°16'8 8.5
2018-Feb-14 02:09N 31°56' W 080°16'3 9.5
2018-Feb-14 01:47N 31°56' W 080°20'3 9.8
2018-Feb-14 01:29N 31°56' W 080°23'5 9.7
2018-Feb-14 01:00N 31°56' W 080°29'5 9.9
2018-Feb-14 00:30N 31°56' W 080°35'5 9.4
2018-Feb-14 00:00N 31°57' W 080°40'510.7
2018-Feb-13 23:30N 31°59' W 080°46'611.9
2018-Feb-13 23:00N 32°02' W 080°52'5 9.2
2018-Feb-13 22:30N 32°04' W 080°57'4 8.8
2018-Feb-13 22:00N 32°05' W 081°02'3 6.0
2018-Feb-13 21:30N 32°05' W 081°05'2 4.9
2018-Feb-13 21:00N 32°06' W 081°07'2 4.0
2018-Feb-13 20:30N 32°08' W 081°09'0 0.1
2018-Feb-13 19:59N 32°08' W 081°09'0 0.0
2018-Feb-13 19:29N 32°08' W 081°09'0 0.0
2018-Feb-13 18:59N 32°08' W 081°09'0 0.0
2018-Feb-13 18:29N 32°08' W 081°09'0 0.0
2018-Feb-13 17:59N 32°08' W 081°09'0 0.0
2018-Feb-13 17:29N 32°08' W 081°09'0 0.0
2018-Feb-13 16:59N 32°08' W 081°09'0 0.0
2018-Feb-13 16:29N 32°08' W 081°09'0 0.0
2018-Feb-13 15:59N 32°08' W 081°09'0 0.0
2018-Feb-13 15:29N 32°08' W 081°09'0 0.0
2018-Feb-13 14:59N 32°08' W 081°09'0 0.0
2018-Feb-13 14:29N 32°08' W 081°09'0 0.0
2018-Feb-13 13:59N 32°08' W 081°09'0 0.0
2018-Feb-13 13:29N 32°08' W 081°09'0 0.0
2018-Feb-13 12:59N 32°08' W 081°09'0 0.0
2018-Feb-13 12:29N 32°08' W 081°09'0 0.0
2018-Feb-13 11:59N 32°08' W 081°09'0 0.0
2018-Feb-13 11:29N 32°08' W 081°09'0 0.0
2018-Feb-13 10:59N 32°08' W 081°09'0 0.0
2018-Feb-13 10:29N 32°08' W 081°09'0 0.0
2018-Feb-13 09:59N 32°08' W 081°09'0 0.0
2018-Feb-13 09:29N 32°08' W 081°09'0 0.0
2018-Feb-13 08:59N 32°08' W 081°09'0 0.0
2018-Feb-13 08:29N 32°08' W 081°09'0 0.0
2018-Feb-13 07:59N 32°08' W 081°09'0 0.0
2018-Feb-13 07:29N 32°08' W 081°09'0 0.0
2018-Feb-13 06:59N 32°08' W 081°09'0 0.0
2018-Feb-13 06:29N 32°08' W 081°09'0 0.0
2018-Feb-13 05:59N 32°08' W 081°09'0 0.0
2018-Feb-13 05:23N 32°08' W 081°09'0 0.0
2018-Feb-13 04:59N 32°08' W 081°09'0 0.0
2018-Feb-13 04:23N 32°08' W 081°09'0 0.0
2018-Feb-13 03:59N 32°08' W 081°09'0 0.0
2018-Feb-13 03:29N 32°08' W 081°09'0 0.0
2018-Feb-13 02:59N 32°08' W 081°09'0 0.0
2018-Feb-13 02:29N 32°08' W 081°09'0 0.0
2018-Feb-13 01:59N 32°08' W 081°09'0 0.0
2018-Feb-13 01:29N 32°08' W 081°09'0 0.0
2018-Feb-13 00:59N 32°08' W 081°09'0 0.0
2018-Feb-13 00:29N 32°08' W 081°09'0 0.0
2018-Feb-12 23:59N 32°08' W 081°09'0 0.0
2018-Feb-12 23:23N 32°08' W 081°09'0 0.0
2018-Feb-12 22:59N 32°08' W 081°09'0 0.0
2018-Feb-12 22:29N 32°08' W 081°09'0 0.0
2018-Feb-12 21:59N 32°08' W 081°09'0 0.0
2018-Feb-12 21:29N 32°08' W 081°09'0 0.0
2018-Feb-12 20:59N 32°08' W 081°09'0 0.0
2018-Feb-12 20:29N 32°08' W 081°09'0 0.0
2018-Feb-12 19:59N 32°08' W 081°09'0 0.0
2018-Feb-12 19:29N 32°08' W 081°09'0 0.0
2018-Feb-12 18:59N 32°08' W 081°09'0 0.0
2018-Feb-12 18:29N 32°08' W 081°09'0 0.0
2018-Feb-12 17:59N 32°08' W 081°09'0 0.0
2018-Feb-12 17:29N 32°08' W 081°09'0 0.0
2018-Feb-12 16:59N 32°08' W 081°09'0 0.0
2018-Feb-12 16:17N 32°08' W 081°09'0 0.0
2018-Feb-12 15:59N 32°08' W 081°09'0 0.0
2018-Feb-12 15:17N 32°08' W 081°09'0 0.0
2018-Feb-12 15:00N 32°08' W 081°09'0 0.0
2018-Feb-12 14:30N 32°08' W 081°09'0 0.3
2018-Feb-12 14:00N 32°08' W 081°08'1 2.8
2018-Feb-12 13:30N 32°07' W 081°08'2 4.3
2018-Feb-12 13:00N 32°05' W 081°06'2 4.7
2018-Feb-12 12:30N 32°05' W 081°03'3 6.6
2018-Feb-12 12:00N 32°05' W 080°59'611.5
2018-Feb-12 11:30N 32°02' W 080°53'510.7
2018-Feb-12 11:00N 32°00' W 080°48'713.5
2018-Feb-12 10:30N 31°57' W 080°41'4 8.5
2018-Feb-12 10:00N 31°56' W 080°36'1 0.7
2018-Feb-12 09:08N 31°57' W 080°36'0 0.0
2018-Feb-12 08:50N 31°57' W 080°36'0 0.1
2018-Feb-12 07:56N 31°57' W 080°36'0 0.0
2018-Feb-12 05:44N 31°57' W 080°36'0 0.5
2018-Feb-12 05:26N 31°57' W 080°36'0 0.3
2018-Feb-12 04:56N 31°57' W 080°35'0 0.1
2018-Feb-12 04:26N 31°57' W 080°35'0 0.0
2018-Feb-12 03:56N 31°57' W 080°35'0 0.0
2018-Feb-12 03:26N 31°57' W 080°35'0 0.1
2018-Feb-12 02:56N 31°57' W 080°35'0 0.1
2018-Feb-12 02:26N 31°57' W 080°35'0 0.1
2018-Feb-12 01:56N 31°57' W 080°35'0 0.1
2018-Feb-12 01:26N 31°57' W 080°35'0 0.0
2018-Feb-12 00:56N 31°57' W 080°35'0 0.3
2018-Feb-12 00:26N 31°57' W 080°35'0 0.1
2018-Feb-11 23:56N 31°57' W 080°35'0 0.0
2018-Feb-11 23:26N 31°57' W 080°35'0 0.1
2018-Feb-11 22:56N 31°57' W 080°35'0 0.0
2018-Feb-11 22:26N 31°57' W 080°35'0 0.0
2018-Feb-11 21:56N 31°57' W 080°35'0 0.0
2018-Feb-11 21:26N 31°57' W 080°35'0 0.0
2018-Feb-11 20:20N 31°57' W 080°35'0 0.1
2018-Feb-11 19:56N 31°57' W 080°35'0 0.0
2018-Feb-11 19:20N 31°57' W 080°35'0 0.0
2018-Feb-11 18:56N 31°57' W 080°35'0 0.0
2018-Feb-11 16:50N 31°57' W 080°35'0 0.0
2018-Feb-11 16:26N 31°57' W 080°35'0 0.0
2018-Feb-11 15:20N 31°57' W 080°35'0 0.1
2018-Feb-11 14:20N 31°57' W 080°35'0 1.0
2018-Feb-11 14:00N 31°57' W 080°35'8 9.0
2018-Feb-11 13:10N 31°56' W 080°26'310.0
2018-Feb-11 12:54N 31°56' W 080°23'4 9.8
2018-Feb-11 12:29N 31°57' W 080°18'12 9.8
2018-Feb-11 11:19N 32°01' W 080°06'348 6.9
2018-Feb-09 09:00N 36°54' W 076°20'0 0.0
2018-Feb-09 07:30N 36°54' W 076°20'0 0.0
2018-Feb-09 05:00N 36°54' W 076°20'0 0.0
2018-Feb-09 02:30N 36°54' W 076°20'0 0.0
2018-Feb-09 02:00N 36°54' W 076°20'0 0.0
2018-Feb-09 00:00N 36°55' W 076°20'0 0.0
2018-Feb-08 21:30N 36°54' W 076°20'3 3.1
2018-Feb-08 20:30N 36°58' W 076°20'1312.8
2018-Feb-08 19:30N 36°58' W 076°04'241 7.1
2018-Feb-07 09:28N 40°40' W 074°05'0 0.0
2018-Feb-07 08:58N 40°40' W 074°05'0 0.0
2018-Feb-07 08:28N 40°40' W 074°05'0 0.0
2018-Feb-07 07:58N 40°40' W 074°05'0 0.0
2018-Feb-07 07:28N 40°40' W 074°05'0 0.0
2018-Feb-07 06:58N 40°40' W 074°05'0 0.0
2018-Feb-07 06:28N 40°40' W 074°05'0 0.0
2018-Feb-07 05:58N 40°40' W 074°05'0 0.0
2018-Feb-07 05:28N 40°40' W 074°05'0 0.0
2018-Feb-07 04:58N 40°40' W 074°05'0 0.0
2018-Feb-07 04:28N 40°40' W 074°05'0 0.0
2018-Feb-07 03:58N 40°40' W 074°05'0 0.0
2018-Feb-07 03:28N 40°40' W 074°05'0 0.0
2018-Feb-07 02:58N 40°40' W 074°05'0 0.0
2018-Feb-07 02:28N 40°40' W 074°05'0 0.0
2018-Feb-07 01:58N 40°40' W 074°05'0 0.0
2018-Feb-07 01:28N 40°40' W 074°05'0 0.0
2018-Feb-07 00:58N 40°40' W 074°05'0 0.0
2018-Feb-07 00:28N 40°40' W 074°05'0 0.0
2018-Feb-06 23:58N 40°40' W 074°05'0 0.0
2018-Feb-06 23:28N 40°40' W 074°05'0 0.0
2018-Feb-06 22:58N 40°40' W 074°05'0 0.0
2018-Feb-06 22:28N 40°40' W 074°05'0 0.0
2018-Feb-06 21:58N 40°40' W 074°05'0 0.0
2018-Feb-06 21:28N 40°40' W 074°05'0 0.0
2018-Feb-06 20:58N 40°40' W 074°05'0 0.0
2018-Feb-06 20:28N 40°40' W 074°05'0 0.0
2018-Feb-06 19:58N 40°40' W 074°05'0 0.0
2018-Feb-06 19:28N 40°40' W 074°05'0 0.0
2018-Feb-06 18:58N 40°40' W 074°05'0 0.0
2018-Feb-06 18:28N 40°40' W 074°05'0 0.0
2018-Feb-06 17:58N 40°40' W 074°05'0 0.0
2018-Feb-06 17:28N 40°40' W 074°05'0 0.0
2018-Feb-06 16:58N 40°40' W 074°05'0 0.0
2018-Feb-06 16:28N 40°40' W 074°05'0 0.0
2018-Feb-06 15:58N 40°40' W 074°05'  
Track history (hours):
 
Tides and Currents Weather Stations Pressure Air Temp Water Temp Dewpoint Dewpoint Depression Visibility Wind Speed Wind Dir Waves Ship Positions

Prague Express

Last reported at 2018-Feb-16 15:30 UTC. Time now 2018-Feb-18 06:58 UTC.
Position N 32°37' W 079°32'.

Length 335 m; draft 11.9 m.

Type: Cargo ship. MMSI: 218361000.

Date/timePositionNaut miles runAvg speedWind from/ knotsBaromVisibWave heightAir tempDewpointWater temp
2018-Feb-16 15:30N 32°37' W 079°32'1811.3
2018-Feb-16 13:55N 32°19' W 079°34'915.5
2018-Feb-16 13:21N 32°11' W 079°36'716.9
2018-Feb-16 12:57N 32°09' W 079°44'816.8
2018-Feb-16 12:30N 32°03' W 079°49'917.0
2018-Feb-16 12:00N 31°55' W 079°54'816.8
2018-Feb-16 11:30N 31°48' W 079°59'816.6
2018-Feb-16 10:59N 31°41' W 080°04'816.6
2018-Feb-16 10:30N 31°34' W 080°08'816.5
2018-Feb-16 10:00N 31°27' W 080°13'816.4
2018-Feb-16 09:30N 31°19' W 080°18'1017.6
2018-Feb-16 08:55N 31°10' W 080°24'  
2018-Feb-14 03:06N 31°48' W 080°16'8 8.5
2018-Feb-14 02:09N 31°56' W 080°16'3 9.5
2018-Feb-14 01:47N 31°56' W 080°20'3 9.8
2018-Feb-14 01:29N 31°56' W 080°23'5 9.7
2018-Feb-14 01:00N 31°56' W 080°29'5 9.9
2018-Feb-14 00:30N 31°56' W 080°35'5 9.4
2018-Feb-14 00:00N 31°57' W 080°40'510.7
2018-Feb-13 23:30N 31°59' W 080°46'611.9
2018-Feb-13 23:00N 32°02' W 080°52'5 9.2
2018-Feb-13 22:30N 32°04' W 080°57'4 8.8
2018-Feb-13 22:00N 32°05' W 081°02'3 6.0
2018-Feb-13 21:30N 32°05' W 081°05'2 4.9
2018-Feb-13 21:00N 32°06' W 081°07'2 4.0
2018-Feb-13 20:30N 32°08' W 081°09'0 0.1
2018-Feb-13 19:59N 32°08' W 081°09'0 0.0
2018-Feb-13 19:29N 32°08' W 081°09'0 0.0
2018-Feb-13 18:59N 32°08' W 081°09'0 0.0
2018-Feb-13 18:29N 32°08' W 081°09'0 0.0
2018-Feb-13 17:59N 32°08' W 081°09'0 0.0
2018-Feb-13 17:29N 32°08' W 081°09'0 0.0
2018-Feb-13 16:59N 32°08' W 081°09'0 0.0
2018-Feb-13 16:29N 32°08' W 081°09'0 0.0
2018-Feb-13 15:59N 32°08' W 081°09'0 0.0
2018-Feb-13 15:29N 32°08' W 081°09'0 0.0
2018-Feb-13 14:59N 32°08' W 081°09'0 0.0
2018-Feb-13 14:29N 32°08' W 081°09'0 0.0
2018-Feb-13 13:59N 32°08' W 081°09'0 0.0
2018-Feb-13 13:29N 32°08' W 081°09'0 0.0
2018-Feb-13 12:59N 32°08' W 081°09'0 0.0
2018-Feb-13 12:29N 32°08' W 081°09'0 0.0
2018-Feb-13 11:59N 32°08' W 081°09'0 0.0
2018-Feb-13 11:29N 32°08' W 081°09'0 0.0
2018-Feb-13 10:59N 32°08' W 081°09'0 0.0
2018-Feb-13 10:29N 32°08' W 081°09'0 0.0
2018-Feb-13 09:59N 32°08' W 081°09'0 0.0
2018-Feb-13 09:29N 32°08' W 081°09'0 0.0
2018-Feb-13 08:59N 32°08' W 081°09'0 0.0
2018-Feb-13 08:29N 32°08' W 081°09'0 0.0
2018-Feb-13 07:59N 32°08' W 081°09'0 0.0
2018-Feb-13 07:29N 32°08' W 081°09'0 0.0
2018-Feb-13 06:59N 32°08' W 081°09'0 0.0
2018-Feb-13 06:29N 32°08' W 081°09'0 0.0
2018-Feb-13 05:59N 32°08' W 081°09'0 0.0
2018-Feb-13 05:23N 32°08' W 081°09'0 0.0
2018-Feb-13 04:59N 32°08' W 081°09'0 0.0
2018-Feb-13 04:23N 32°08' W 081°09'0 0.0
2018-Feb-13 03:59N 32°08' W 081°09'0 0.0
2018-Feb-13 03:29N 32°08' W 081°09'0 0.0
2018-Feb-13 02:59N 32°08' W 081°09'0 0.0
2018-Feb-13 02:29N 32°08' W 081°09'0 0.0
2018-Feb-13 01:59N 32°08' W 081°09'0 0.0
2018-Feb-13 01:29N 32°08' W 081°09'0 0.0
2018-Feb-13 00:59N 32°08' W 081°09'0 0.0
2018-Feb-13 00:29N 32°08' W 081°09'0 0.0
2018-Feb-12 23:59N 32°08' W 081°09'0 0.0
2018-Feb-12 23:23N 32°08' W 081°09'0 0.0
2018-Feb-12 22:59N 32°08' W 081°09'0 0.0
2018-Feb-12 22:29N 32°08' W 081°09'0 0.0
2018-Feb-12 21:59N 32°08' W 081°09'0 0.0
2018-Feb-12 21:29N 32°08' W 081°09'0 0.0
2018-Feb-12 20:59N 32°08' W 081°09'0 0.0
2018-Feb-12 20:29N 32°08' W 081°09'0 0.0
2018-Feb-12 19:59N 32°08' W 081°09'0 0.0
2018-Feb-12 19:29N 32°08' W 081°09'0 0.0
2018-Feb-12 18:59N 32°08' W 081°09'0 0.0
2018-Feb-12 18:29N 32°08' W 081°09'0 0.0
2018-Feb-12 17:59N 32°08' W 081°09'0 0.0
2018-Feb-12 17:29N 32°08' W 081°09'0 0.0
2018-Feb-12 16:59N 32°08' W 081°09'0 0.0
2018-Feb-12 16:17N 32°08' W 081°09'0 0.0
2018-Feb-12 15:59N 32°08' W 081°09'0 0.0
2018-Feb-12 15:17N 32°08' W 081°09'0 0.0
2018-Feb-12 15:00N 32°08' W 081°09'0 0.0
2018-Feb-12 14:30N 32°08' W 081°09'0 0.3
2018-Feb-12 14:00N 32°08' W 081°08'1 2.8
2018-Feb-12 13:30N 32°07' W 081°08'2 4.3
2018-Feb-12 13:00N 32°05' W 081°06'2 4.7
2018-Feb-12 12:30N 32°05' W 081°03'3 6.6
2018-Feb-12 12:00N 32°05' W 080°59'611.5
2018-Feb-12 11:30N 32°02' W 080°53'510.7
2018-Feb-12 11:00N 32°00' W 080°48'713.5
2018-Feb-12 10:30N 31°57' W 080°41'4 8.5
2018-Feb-12 10:00N 31°56' W 080°36'1 0.7
2018-Feb-12 09:08N 31°57' W 080°36'0 0.0
2018-Feb-12 08:50N 31°57' W 080°36'0 0.1
2018-Feb-12 07:56N 31°57' W 080°36'0 0.0
2018-Feb-12 05:44N 31°57' W 080°36'0 0.5
2018-Feb-12 05:26N 31°57' W 080°36'0 0.3
2018-Feb-12 04:56N 31°57' W 080°35'0 0.1
2018-Feb-12 04:26N 31°57' W 080°35'0 0.0
2018-Feb-12 03:56N 31°57' W 080°35'0 0.0
2018-Feb-12 03:26N 31°57' W 080°35'0 0.1
2018-Feb-12 02:56N 31°57' W 080°35'0 0.1
2018-Feb-12 02:26N 31°57' W 080°35'0 0.1
2018-Feb-12 01:56N 31°57' W 080°35'0 0.1
2018-Feb-12 01:26N 31°57' W 080°35'0 0.0
2018-Feb-12 00:56N 31°57' W 080°35'0 0.3
2018-Feb-12 00:26N 31°57' W 080°35'0 0.1
2018-Feb-11 23:56N 31°57' W 080°35'0 0.0
2018-Feb-11 23:26N 31°57' W 080°35'0 0.1
2018-Feb-11 22:56N 31°57' W 080°35'0 0.0
2018-Feb-11 22:26N 31°57' W 080°35'0 0.0
2018-Feb-11 21:56N 31°57' W 080°35'0 0.0
2018-Feb-11 21:26N 31°57' W 080°35'0 0.0
2018-Feb-11 20:20N 31°57' W 080°35'0 0.1
2018-Feb-11 19:56N 31°57' W 080°35'0 0.0
2018-Feb-11 19:20N 31°57' W 080°35'0 0.0
2018-Feb-11 18:56N 31°57' W 080°35'0 0.0
2018-Feb-11 16:50N 31°57' W 080°35'0 0.0
2018-Feb-11 16:26N 31°57' W 080°35'0 0.0
2018-Feb-11 15:20N 31°57' W 080°35'0 0.1
2018-Feb-11 14:20N 31°57' W 080°35'0 1.0
2018-Feb-11 14:00N 31°57' W 080°35'8 9.0
2018-Feb-11 13:10N 31°56' W 080°26'310.0
2018-Feb-11 12:54N 31°56' W 080°23'4 9.8
2018-Feb-11 12:29N 31°57' W 080°18'12 9.8
2018-Feb-11 11:19N 32°01' W 080°06'348 6.9
2018-Feb-09 09:00N 36°54' W 076°20'0 0.0
2018-Feb-09 07:30N 36°54' W 076°20'0 0.0
2018-Feb-09 05:00N 36°54' W 076°20'0 0.0
2018-Feb-09 02:30N 36°54' W 076°20'0 0.0
2018-Feb-09 02:00N 36°54' W 076°20'0 0.0
2018-Feb-09 00:00N 36°55' W 076°20'0 0.0
2018-Feb-08 21:30N 36°54' W 076°20'3 3.1
2018-Feb-08 20:30N 36°58' W 076°20'1312.8
2018-Feb-08 19:30N 36°58' W 076°04'241 7.1
2018-Feb-07 09:28N 40°40' W 074°05'0 0.0
2018-Feb-07 08:58N 40°40' W 074°05'0 0.0
2018-Feb-07 08:28N 40°40' W 074°05'0 0.0
2018-Feb-07 07:58N 40°40' W 074°05'0 0.0
2018-Feb-07 07:28N 40°40' W 074°05'0 0.0
2018-Feb-07 06:58N 40°40' W 074°05'0 0.0
2018-Feb-07 06:28N 40°40' W 074°05'0 0.0
2018-Feb-07 05:58N 40°40' W 074°05'0 0.0
2018-Feb-07 05:28N 40°40' W 074°05'0 0.0
2018-Feb-07 04:58N 40°40' W 074°05'0 0.0
2018-Feb-07 04:28N 40°40' W 074°05'0 0.0
2018-Feb-07 03:58N 40°40' W 074°05'0 0.0
2018-Feb-07 03:28N 40°40' W 074°05'0 0.0
2018-Feb-07 02:58N 40°40' W 074°05'0 0.0
2018-Feb-07 02:28N 40°40' W 074°05'0 0.0
2018-Feb-07 01:58N 40°40' W 074°05'0 0.0
2018-Feb-07 01:28N 40°40' W 074°05'0 0.0
2018-Feb-07 00:58N 40°40' W 074°05'0 0.0
2018-Feb-07 00:28N 40°40' W 074°05'0 0.0
2018-Feb-06 23:58N 40°40' W 074°05'0 0.0
2018-Feb-06 23:28N 40°40' W 074°05'0 0.0
2018-Feb-06 22:58N 40°40' W 074°05'0 0.0
2018-Feb-06 22:28N 40°40' W 074°05'0 0.0
2018-Feb-06 21:58N 40°40' W 074°05'0 0.0
2018-Feb-06 21:28N 40°40' W 074°05'0 0.0
2018-Feb-06 20:58N 40°40' W 074°05'0 0.0
2018-Feb-06 20:28N 40°40' W 074°05'0 0.0
2018-Feb-06 19:58N 40°40' W 074°05'0 0.0
2018-Feb-06 19:28N 40°40' W 074°05'0 0.0
2018-Feb-06 18:58N 40°40' W 074°05'0 0.0
2018-Feb-06 18:28N 40°40' W 074°05'0 0.0
2018-Feb-06 17:58N 40°40' W 074°05'0 0.0
2018-Feb-06 17:28N 40°40' W 074°05'0 0.0
2018-Feb-06 16:58N 40°40' W 074°05'0 0.0
2018-Feb-06 16:28N 40°40' W 074°05'0 0.0
2018-Feb-06 15:58N 40°40' W 074°05'  

Dump ship's entire track history